sensor_id;sensor_type;location;lat;lon;timestamp;P1;P2;P0
73623;PMS5003;61921;53.226;-1.296;2023-05-07T00:00:34;16;16;
73623;PMS5003;61921;53.226;-1.296;2023-05-07T00:02:59;18;18;
73623;PMS5003;61921;53.226;-1.296;2023-05-07T00:05:25;23;22;
73623;PMS5003;61921;53.226;-1.296;2023-05-07T00:07:50;22;20;
73623;PMS5003;61921;53.226;-1.296;2023-05-07T00:10:15;17;17;
73623;PMS5003;61921;53.226;-1.296;2023-05-07T00:12:41;17;17;
73623;PMS5003;61921;53.226;-1.296;2023-05-07T00:15:07;17;17;
73623;PMS5003;61921;53.226;-1.296;2023-05-07T00:17:32;17;15;
73623;PMS5003;61921;53.226;-1.296;2023-05-07T00:19:58;17;16;
73623;PMS5003;61921;53.226;-1.296;2023-05-07T00:22:23;22;18;
73623;PMS5003;61921;53.226;-1.296;2023-05-07T00:24:49;17;16;
73623;PMS5003;61921;53.226;-1.296;2023-05-07T00:27:14;16;16;
73623;PMS5003;61921;53.226;-1.296;2023-05-07T00:29:39;17;16;
73623;PMS5003;61921;53.226;-1.296;2023-05-07T00:32:04;18;16;
73623;PMS5003;61921;53.226;-1.296;2023-05-07T00:34:30;15;15;
73623;PMS5003;61921;53.226;-1.296;2023-05-07T00:36:55;11;11;
73623;PMS5003;61921;53.226;-1.296;2023-05-07T00:39:21;11;10;
73623;PMS5003;61921;53.226;-1.296;2023-05-07T00:41:46;9;9;
73623;PMS5003;61921;53.226;-1.296;2023-05-07T00:44:11;9;9;
73623;PMS5003;61921;53.226;-1.296;2023-05-07T00:46:36;9;9;
73623;PMS5003;61921;53.226;-1.296;2023-05-07T00:49:02;12;10;
73623;PMS5003;61921;53.226;-1.296;2023-05-07T00:51:27;12;10;
73623;PMS5003;61921;53.226;-1.296;2023-05-07T00:53:52;11;10;
73623;PMS5003;61921;53.226;-1.296;2023-05-07T00:56:18;11;10;
73623;PMS5003;61921;53.226;-1.296;2023-05-07T00:58:44;13;9;
73623;PMS5003;61921;53.226;-1.296;2023-05-07T01:01:09;13;11;
73623;PMS5003;61921;53.226;-1.296;2023-05-07T01:03:34;12;12;
73623;PMS5003;61921;53.226;-1.296;2023-05-07T01:05:59;11;11;
73623;PMS5003;61921;53.226;-1.296;2023-05-07T01:08:25;17;13;
73623;PMS5003;61921;53.226;-1.296;2023-05-07T01:10:51;17;15;
73623;PMS5003;61921;53.226;-1.296;2023-05-07T01:13:17;14;14;
73623;PMS5003;61921;53.226;-1.296;2023-05-07T01:15:42;15;12;
73623;PMS5003;61921;53.226;-1.296;2023-05-07T01:18:08;14;12;
73623;PMS5003;61921;53.226;-1.296;2023-05-07T01:20:34;15;15;
73623;PMS5003;61921;53.226;-1.296;2023-05-07T01:22:59;12;10;
73623;PMS5003;61921;53.226;-1.296;2023-05-07T01:25:25;14;13;
73623;PMS5003;61921;53.226;-1.296;2023-05-07T01:27:51;15;15;
73623;PMS5003;61921;53.226;-1.296;2023-05-07T01:30:16;12;12;
73623;PMS5003;61921;53.226;-1.296;2023-05-07T01:32:43;15;14;
73623;PMS5003;61921;53.226;-1.296;2023-05-07T01:35:12;13;11;
73623;PMS5003;61921;53.226;-1.296;2023-05-07T01:37:33;11;11;
73623;PMS5003;61921;53.226;-1.296;2023-05-07T01:39:58;15;14;
73623;PMS5003;61921;53.226;-1.296;2023-05-07T01:42:24;14;13;
73623;PMS5003;61921;53.226;-1.296;2023-05-07T01:44:49;12;10;
73623;PMS5003;61921;53.226;-1.296;2023-05-07T01:47:15;14;14;
73623;PMS5003;61921;53.226;-1.296;2023-05-07T01:49:41;12;12;
73623;PMS5003;61921;53.226;-1.296;2023-05-07T01:52:06;11;11;
73623;PMS5003;61921;53.226;-1.296;2023-05-07T01:54:31;13;12;
73623;PMS5003;61921;53.226;-1.296;2023-05-07T01:56:56;11;10;
73623;PMS5003;61921;53.226;-1.296;2023-05-07T01:59:21;12;12;
73623;PMS5003;61921;53.226;-1.296;2023-05-07T02:01:47;11;11;
73623;PMS5003;61921;53.226;-1.296;2023-05-07T02:04:12;15;14;
73623;PMS5003;61921;53.226;-1.296;2023-05-07T02:06:38;17;16;
73623;PMS5003;61921;53.226;-1.296;2023-05-07T02:09:04;13;12;
73623;PMS5003;61921;53.226;-1.296;2023-05-07T02:11:29;17;17;
73623;PMS5003;61921;53.226;-1.296;2023-05-07T02:13:55;18;17;
73623;PMS5003;61921;53.226;-1.296;2023-05-07T02:16:20;17;14;
73623;PMS5003;61921;53.226;-1.296;2023-05-07T02:18:45;19;17;
73623;PMS5003;61921;53.226;-1.296;2023-05-07T02:21:11;16;13;
73623;PMS5003;61921;53.226;-1.296;2023-05-07T02:23:36;16;14;
73623;PMS5003;61921;53.226;-1.296;2023-05-07T02:26:01;11;11;
73623;PMS5003;61921;53.226;-1.296;2023-05-07T02:28:26;16;12;
73623;PMS5003;61921;53.226;-1.296;2023-05-07T02:30:52;15;13;
73623;PMS5003;61921;53.226;-1.296;2023-05-07T02:33:18;16;15;
73623;PMS5003;61921;53.226;-1.296;2023-05-07T02:35:44;16;14;
73623;PMS5003;61921;53.226;-1.296;2023-05-07T02:38:09;14;14;
73623;PMS5003;61921;53.226;-1.296;2023-05-07T02:40:35;15;15;
73623;PMS5003;61921;53.226;-1.296;2023-05-07T02:43:01;14;14;
73623;PMS5003;61921;53.226;-1.296;2023-05-07T02:45:26;16;16;
73623;PMS5003;61921;53.226;-1.296;2023-05-07T02:47:52;20;18;
73623;PMS5003;61921;53.226;-1.296;2023-05-07T02:50:18;21;19;
73623;PMS5003;61921;53.226;-1.296;2023-05-07T02:52:43;21;16;
73623;PMS5003;61921;53.226;-1.296;2023-05-07T02:55:09;16;14;
73623;PMS5003;61921;53.226;-1.296;2023-05-07T02:57:34;12;12;
73623;PMS5003;61921;53.226;-1.296;2023-05-07T02:59:59;21;15;
73623;PMS5003;61921;53.226;-1.296;2023-05-07T03:02:25;15;15;
73623;PMS5003;61921;53.226;-1.296;2023-05-07T03:04:51;12;12;
73623;PMS5003;61921;53.226;-1.296;2023-05-07T03:07:17;15;14;
73623;PMS5003;61921;53.226;-1.296;2023-05-07T03:09:42;13;13;
73623;PMS5003;61921;53.226;-1.296;2023-05-07T03:12:08;14;14;
73623;PMS5003;61921;53.226;-1.296;2023-05-07T03:14:34;13;13;
73623;PMS5003;61921;53.226;-1.296;2023-05-07T03:16:59;14;11;
73623;PMS5003;61921;53.226;-1.296;2023-05-07T03:19:24;17;16;
73623;PMS5003;61921;53.226;-1.296;2023-05-07T03:21:49;15;14;
73623;PMS5003;61921;53.226;-1.296;2023-05-07T03:24:15;12;10;
73623;PMS5003;61921;53.226;-1.296;2023-05-07T03:26:41;15;12;
73623;PMS5003;61921;53.226;-1.296;2023-05-07T03:29:06;21;16;
73623;PMS5003;61921;53.226;-1.296;2023-05-07T03:31:31;13;12;
73623;PMS5003;61921;53.226;-1.296;2023-05-07T03:33:57;15;14;
73623;PMS5003;61921;53.226;-1.296;2023-05-07T03:36:23;13;13;
73623;PMS5003;61921;53.226;-1.296;2023-05-07T03:38:49;13;13;
73623;PMS5003;61921;53.226;-1.296;2023-05-07T03:41:15;13;12;
73623;PMS5003;61921;53.226;-1.296;2023-05-07T03:43:40;16;12;
73623;PMS5003;61921;53.226;-1.296;2023-05-07T03:46:06;11;11;
73623;PMS5003;61921;53.226;-1.296;2023-05-07T03:48:31;17;14;
73623;PMS5003;61921;53.226;-1.296;2023-05-07T03:50:57;16;15;
73623;PMS5003;61921;53.226;-1.296;2023-05-07T03:53:22;16;15;
73623;PMS5003;61921;53.226;-1.296;2023-05-07T03:55:48;17;15;
73623;PMS5003;61921;53.226;-1.296;2023-05-07T03:58:14;11;11;
73623;PMS5003;61921;53.226;-1.296;2023-05-07T04:00:39;16;14;
73623;PMS5003;61921;53.226;-1.296;2023-05-07T04:03:04;14;14;
73623;PMS5003;61921;53.226;-1.296;2023-05-07T04:05:30;18;16;
73623;PMS5003;61921;53.226;-1.296;2023-05-07T04:07:57;15;15;
73623;PMS5003;61921;53.226;-1.296;2023-05-07T04:10:22;20;19;
73623;PMS5003;61921;53.226;-1.296;2023-05-07T04:12:47;15;15;
73623;PMS5003;61921;53.226;-1.296;2023-05-07T04:15:13;16;16;
73623;PMS5003;61921;53.226;-1.296;2023-05-07T04:17:39;23;20;
73623;PMS5003;61921;53.226;-1.296;2023-05-07T04:20:05;23;18;
73623;PMS5003;61921;53.226;-1.296;2023-05-07T04:22:31;18;17;
73623;PMS5003;61921;53.226;-1.296;2023-05-07T04:24:57;19;17;
73623;PMS5003;61921;53.226;-1.296;2023-05-07T04:27:22;21;21;
73623;PMS5003;61921;53.226;-1.296;2023-05-07T04:29:47;19;19;
73623;PMS5003;61921;53.226;-1.296;2023-05-07T04:32:12;18;18;
73623;PMS5003;61921;53.226;-1.296;2023-05-07T04:34:38;19;19;
73623;PMS5003;61921;53.226;-1.296;2023-05-07T04:37:04;19;16;
73623;PMS5003;61921;53.226;-1.296;2023-05-07T04:39:30;25;22;
73623;PMS5003;61921;53.226;-1.296;2023-05-07T04:41:55;21;20;
73623;PMS5003;61921;53.226;-1.296;2023-05-07T04:44:20;20;16;
73623;PMS5003;61921;53.226;-1.296;2023-05-07T04:46:46;16;15;
73623;PMS5003;61921;53.226;-1.296;2023-05-07T04:49:12;15;15;
73623;PMS5003;61921;53.226;-1.296;2023-05-07T04:51:37;21;17;
73623;PMS5003;61921;53.226;-1.296;2023-05-07T04:54:03;15;14;
73623;PMS5003;61921;53.226;-1.296;2023-05-07T04:56:29;19;15;
73623;PMS5003;61921;53.226;-1.296;2023-05-07T04:58:54;17;15;
73623;PMS5003;61921;53.226;-1.296;2023-05-07T05:01:20;16;15;
73623;PMS5003;61921;53.226;-1.296;2023-05-07T05:03:45;20;18;
73623;PMS5003;61921;53.226;-1.296;2023-05-07T05:06:11;15;13;
73623;PMS5003;61921;53.226;-1.296;2023-05-07T05:08:36;16;15;
73623;PMS5003;61921;53.226;-1.296;2023-05-07T05:11:02;17;14;
73623;PMS5003;61921;53.226;-1.296;2023-05-07T05:13:27;18;14;
73623;PMS5003;61921;53.226;-1.296;2023-05-07T05:15:53;14;13;
73623;PMS5003;61921;53.226;-1.296;2023-05-07T05:18:18;12;12;
73623;PMS5003;61921;53.226;-1.296;2023-05-07T05:20:44;13;11;
73623;PMS5003;61921;53.226;-1.296;2023-05-07T05:23:09;15;12;
73623;PMS5003;61921;53.226;-1.296;2023-05-07T05:25:35;20;17;
73623;PMS5003;61921;53.226;-1.296;2023-05-07T05:28:00;13;13;
73623;PMS5003;61921;53.226;-1.296;2023-05-07T05:30:26;10;10;
73623;PMS5003;61921;53.226;-1.296;2023-05-07T05:32:51;11;10;
73623;PMS5003;61921;53.226;-1.296;2023-05-07T05:35:17;13;13;
73623;PMS5003;61921;53.226;-1.296;2023-05-07T05:37:42;12;11;
73623;PMS5003;61921;53.226;-1.296;2023-05-07T05:40:07;18;16;
73623;PMS5003;61921;53.226;-1.296;2023-05-07T05:42:33;16;16;
73623;PMS5003;61921;53.226;-1.296;2023-05-07T05:44:58;15;13;
73623;PMS5003;61921;53.226;-1.296;2023-05-07T05:47:23;17;15;
73623;PMS5003;61921;53.226;-1.296;2023-05-07T05:49:50;14;13;
73623;PMS5003;61921;53.226;-1.296;2023-05-07T05:52:14;17;16;
73623;PMS5003;61921;53.226;-1.296;2023-05-07T05:54:40;18;17;
73623;PMS5003;61921;53.226;-1.296;2023-05-07T05:57:05;15;14;
73623;PMS5003;61921;53.226;-1.296;2023-05-07T05:59:31;20;19;
73623;PMS5003;61921;53.226;-1.296;2023-05-07T06:01:56;17;14;
73623;PMS5003;61921;53.226;-1.296;2023-05-07T06:04:22;19;17;
73623;PMS5003;61921;53.226;-1.296;2023-05-07T06:06:47;23;18;
73623;PMS5003;61921;53.226;-1.296;2023-05-07T06:09:12;19;17;
73623;PMS5003;61921;53.226;-1.296;2023-05-07T06:11:38;15;15;
73623;PMS5003;61921;53.226;-1.296;2023-05-07T06:14:03;25;18;
73623;PMS5003;61921;53.226;-1.296;2023-05-07T06:16:28;22;20;
73623;PMS5003;61921;53.226;-1.296;2023-05-07T06:18:53;15;15;
73623;PMS5003;61921;53.226;-1.296;2023-05-07T06:21:19;22;19;
73623;PMS5003;61921;53.226;-1.296;2023-05-07T06:23:45;16;15;
73623;PMS5003;61921;53.226;-1.296;2023-05-07T06:26:10;18;17;
73623;PMS5003;61921;53.226;-1.296;2023-05-07T06:28:36;25;23;
73623;PMS5003;61921;53.226;-1.296;2023-05-07T06:31:12;16;16;
73623;PMS5003;61921;53.226;-1.296;2023-05-07T06:33:27;13;12;
73623;PMS5003;61921;53.226;-1.296;2023-05-07T06:35:52;17;16;
73623;PMS5003;61921;53.226;-1.296;2023-05-07T06:38:17;15;15;
73623;PMS5003;61921;53.226;-1.296;2023-05-07T06:40:43;17;17;
73623;PMS5003;61921;53.226;-1.296;2023-05-07T06:43:08;18;16;
73623;PMS5003;61921;53.226;-1.296;2023-05-07T06:45:34;16;15;
73623;PMS5003;61921;53.226;-1.296;2023-05-07T06:47:59;16;15;
73623;PMS5003;61921;53.226;-1.296;2023-05-07T06:50:24;19;16;
73623;PMS5003;61921;53.226;-1.296;2023-05-07T06:52:49;18;18;
73623;PMS5003;61921;53.226;-1.296;2023-05-07T06:55:15;18;18;
73623;PMS5003;61921;53.226;-1.296;2023-05-07T06:57:41;12;12;
73623;PMS5003;61921;53.226;-1.296;2023-05-07T07:00:07;26;21;
73623;PMS5003;61921;53.226;-1.296;2023-05-07T07:02:32;17;17;
73623;PMS5003;61921;53.226;-1.296;2023-05-07T07:04:57;22;20;
73623;PMS5003;61921;53.226;-1.296;2023-05-07T07:07:23;24;23;
73623;PMS5003;61921;53.226;-1.296;2023-05-07T07:09:49;18;18;
73623;PMS5003;61921;53.226;-1.296;2023-05-07T07:12:14;20;18;
73623;PMS5003;61921;53.226;-1.296;2023-05-07T07:14:40;22;21;
73623;PMS5003;61921;53.226;-1.296;2023-05-07T07:17:06;19;19;
73623;PMS5003;61921;53.226;-1.296;2023-05-07T07:19:31;20;18;
73623;PMS5003;61921;53.226;-1.296;2023-05-07T07:21:56;18;18;
73623;PMS5003;61921;53.226;-1.296;2023-05-07T07:24:22;19;19;
73623;PMS5003;61921;53.226;-1.296;2023-05-07T07:26:47;19;19;
73623;PMS5003;61921;53.226;-1.296;2023-05-07T07:29:13;20;19;
73623;PMS5003;61921;53.226;-1.296;2023-05-07T07:31:39;17;17;
73623;PMS5003;61921;53.226;-1.296;2023-05-07T07:34:04;19;17;
73623;PMS5003;61921;53.226;-1.296;2023-05-07T07:36:29;20;19;
73623;PMS5003;61921;53.226;-1.296;2023-05-07T07:38:54;15;14;
73623;PMS5003;61921;53.226;-1.296;2023-05-07T07:41:20;21;21;
73623;PMS5003;61921;53.226;-1.296;2023-05-07T07:43:46;14;13;
73623;PMS5003;61921;53.226;-1.296;2023-05-07T07:46:12;17;13;
73623;PMS5003;61921;53.226;-1.296;2023-05-07T07:48:37;16;15;
73623;PMS5003;61921;53.226;-1.296;2023-05-07T07:51:03;18;17;
73623;PMS5003;61921;53.226;-1.296;2023-05-07T07:53:28;15;15;
73623;PMS5003;61921;53.226;-1.296;2023-05-07T07:55:55;16;15;
73623;PMS5003;61921;53.226;-1.296;2023-05-07T07:58:18;15;14;
73623;PMS5003;61921;53.226;-1.296;2023-05-07T08:00:44;13;13;
73623;PMS5003;61921;53.226;-1.296;2023-05-07T08:03:09;17;15;
73623;PMS5003;61921;53.226;-1.296;2023-05-07T08:05:34;19;15;
73623;PMS5003;61921;53.226;-1.296;2023-05-07T08:08:00;18;17;
73623;PMS5003;61921;53.226;-1.296;2023-05-07T08:10:25;16;15;
73623;PMS5003;61921;53.226;-1.296;2023-05-07T08:12:51;17;16;
73623;PMS5003;61921;53.226;-1.296;2023-05-07T08:15:17;21;18;
73623;PMS5003;61921;53.226;-1.296;2023-05-07T08:17:42;19;17;
73623;PMS5003;61921;53.226;-1.296;2023-05-07T08:20:07;17;17;
73623;PMS5003;61921;53.226;-1.296;2023-05-07T08:22:33;21;19;
73623;PMS5003;61921;53.226;-1.296;2023-05-07T08:24:58;17;16;
73623;PMS5003;61921;53.226;-1.296;2023-05-07T08:27:23;15;14;
73623;PMS5003;61921;53.226;-1.296;2023-05-07T08:29:49;19;18;
73623;PMS5003;61921;53.226;-1.296;2023-05-07T08:32:14;19;15;
73623;PMS5003;61921;53.226;-1.296;2023-05-07T08:34:40;16;16;
73623;PMS5003;61921;53.226;-1.296;2023-05-07T08:37:06;21;21;
73623;PMS5003;61921;53.226;-1.296;2023-05-07T08:39:31;12;12;
73623;PMS5003;61921;53.226;-1.296;2023-05-07T08:41:56;15;14;
73623;PMS5003;61921;53.226;-1.296;2023-05-07T08:44:22;18;14;
73623;PMS5003;61921;53.226;-1.296;2023-05-07T08:46:47;15;14;
73623;PMS5003;61921;53.226;-1.296;2023-05-07T08:49:12;16;16;
73623;PMS5003;61921;53.226;-1.296;2023-05-07T08:51:38;15;14;
73623;PMS5003;61921;53.226;-1.296;2023-05-07T08:54:03;17;16;
73623;PMS5003;61921;53.226;-1.296;2023-05-07T08:56:28;21;14;
73623;PMS5003;61921;53.226;-1.296;2023-05-07T08:58:54;15;15;
73623;PMS5003;61921;53.226;-1.296;2023-05-07T09:01:19;14;14;
73623;PMS5003;61921;53.226;-1.296;2023-05-07T09:03:45;13;13;
73623;PMS5003;61921;53.226;-1.296;2023-05-07T09:06:10;13;13;
73623;PMS5003;61921;53.226;-1.296;2023-05-07T09:08:35;12;12;
73623;PMS5003;61921;53.226;-1.296;2023-05-07T09:11:01;12;12;
73623;PMS5003;61921;53.226;-1.296;2023-05-07T09:13:27;10;10;
73623;PMS5003;61921;53.226;-1.296;2023-05-07T09:15:51;14;14;
73623;PMS5003;61921;53.226;-1.296;2023-05-07T09:18:16;12;12;
73623;PMS5003;61921;53.226;-1.296;2023-05-07T09:20:41;13;13;
73623;PMS5003;61921;53.226;-1.296;2023-05-07T09:23:07;13;12;
73623;PMS5003;61921;53.226;-1.296;2023-05-07T09:25:33;11;11;
73623;PMS5003;61921;53.226;-1.296;2023-05-07T09:30:26;12;12;
73623;PMS5003;61921;53.226;-1.296;2023-05-07T09:32:48;12;10;
73623;PMS5003;61921;53.226;-1.296;2023-05-07T09:35:15;13;12;
73623;PMS5003;61921;53.226;-1.296;2023-05-07T09:37:40;12;11;
73623;PMS5003;61921;53.226;-1.296;2023-05-07T09:40:04;16;14;
73623;PMS5003;61921;53.226;-1.296;2023-05-07T09:42:29;15;13;
73623;PMS5003;61921;53.226;-1.296;2023-05-07T09:44:55;14;13;
73623;PMS5003;61921;53.226;-1.296;2023-05-07T09:47:19;16;16;
73623;PMS5003;61921;53.226;-1.296;2023-05-07T09:49:46;19;17;
73623;PMS5003;61921;53.226;-1.296;2023-05-07T09:52:10;18;17;
73623;PMS5003;61921;53.226;-1.296;2023-05-07T09:54:36;20;17;
73623;PMS5003;61921;53.226;-1.296;2023-05-07T09:57:01;17;15;
73623;PMS5003;61921;53.226;-1.296;2023-05-07T09:59:26;15;15;
73623;PMS5003;61921;53.226;-1.296;2023-05-07T10:01:51;13;11;
73623;PMS5003;61921;53.226;-1.296;2023-05-07T10:04:16;14;14;
73623;PMS5003;61921;53.226;-1.296;2023-05-07T10:06:41;15;13;
73623;PMS5003;61921;53.226;-1.296;2023-05-07T10:09:06;11;11;
73623;PMS5003;61921;53.226;-1.296;2023-05-07T10:11:32;13;13;
73623;PMS5003;61921;53.226;-1.296;2023-05-07T10:13:57;15;14;
73623;PMS5003;61921;53.226;-1.296;2023-05-07T10:16:22;15;13;
73623;PMS5003;61921;53.226;-1.296;2023-05-07T10:18:47;12;11;
73623;PMS5003;61921;53.226;-1.296;2023-05-07T10:21:14;12;9;
73623;PMS5003;61921;53.226;-1.296;2023-05-07T10:23:38;12;11;
73623;PMS5003;61921;53.226;-1.296;2023-05-07T10:26:05;16;15;
73623;PMS5003;61921;53.226;-1.296;2023-05-07T10:28:30;14;13;
73623;PMS5003;61921;53.226;-1.296;2023-05-07T10:30:58;13;13;
73623;PMS5003;61921;53.226;-1.296;2023-05-07T10:33:19;15;15;
73623;PMS5003;61921;53.226;-1.296;2023-05-07T10:35:45;11;11;
73623;PMS5003;61921;53.226;-1.296;2023-05-07T10:38:10;16;16;
73623;PMS5003;61921;53.226;-1.296;2023-05-07T10:40:35;14;13;
73623;PMS5003;61921;53.226;-1.296;2023-05-07T10:43:01;12;12;
73623;PMS5003;61921;53.226;-1.296;2023-05-07T10:45:26;14;14;
73623;PMS5003;61921;53.226;-1.296;2023-05-07T10:50:21;15;14;
73623;PMS5003;61921;53.226;-1.296;2023-05-07T10:52:41;13;13;
73623;PMS5003;61921;53.226;-1.296;2023-05-07T10:57:33;15;13;
73623;PMS5003;61921;53.226;-1.296;2023-05-07T10:59:57;12;11;
73623;PMS5003;61921;53.226;-1.296;2023-05-07T11:02:22;10;10;
73623;PMS5003;61921;53.226;-1.296;2023-05-07T11:07:21;11;11;
73623;PMS5003;61921;53.226;-1.296;2023-05-07T11:12:03;11;10;
73623;PMS5003;61921;53.226;-1.296;2023-05-07T11:16:54;14;14;
73623;PMS5003;61921;53.226;-1.296;2023-05-07T11:19:19;13;12;
73623;PMS5003;61921;53.226;-1.296;2023-05-07T11:21:44;12;12;
73623;PMS5003;61921;53.226;-1.296;2023-05-07T11:24:09;12;11;
73623;PMS5003;61921;53.226;-1.296;2023-05-07T11:29:00;11;11;
73623;PMS5003;61921;53.226;-1.296;2023-05-07T11:31:24;12;12;
73623;PMS5003;61921;53.226;-1.296;2023-05-07T11:33:49;9;8;
73623;PMS5003;61921;53.226;-1.296;2023-05-07T11:36:14;11;9;
73623;PMS5003;61921;53.226;-1.296;2023-05-07T11:38:39;9;8;
73623;PMS5003;61921;53.226;-1.296;2023-05-07T11:41:04;12;11;
73623;PMS5003;61921;53.226;-1.296;2023-05-07T11:43:29;10;10;
73623;PMS5003;61921;53.226;-1.296;2023-05-07T11:45:54;8;8;
73623;PMS5003;61921;53.226;-1.296;2023-05-07T11:48:20;10;10;
73623;PMS5003;61921;53.226;-1.296;2023-05-07T11:50:50;9;7;
73623;PMS5003;61921;53.226;-1.296;2023-05-07T11:53:10;9;9;
73623;PMS5003;61921;53.226;-1.296;2023-05-07T11:55:35;8;7;
73623;PMS5003;61921;53.226;-1.296;2023-05-07T11:58:00;9;7;
73623;PMS5003;61921;53.226;-1.296;2023-05-07T12:00:25;8;7;
73623;PMS5003;61921;53.226;-1.296;2023-05-07T12:02:50;13;11;
73623;PMS5003;61921;53.226;-1.296;2023-05-07T12:05:15;7;7;
73623;PMS5003;61921;53.226;-1.296;2023-05-07T12:07:41;5;5;
73623;PMS5003;61921;53.226;-1.296;2023-05-07T12:10:06;6;6;
73623;PMS5003;61921;53.226;-1.296;2023-05-07T12:12:32;5;5;
73623;PMS5003;61921;53.226;-1.296;2023-05-07T12:14:56;6;6;
73623;PMS5003;61921;53.226;-1.296;2023-05-07T12:17:21;6;6;
73623;PMS5003;61921;53.226;-1.296;2023-05-07T12:19:47;5;5;
73623;PMS5003;61921;53.226;-1.296;2023-05-07T12:22:12;6;5;
73623;PMS5003;61921;53.226;-1.296;2023-05-07T12:24:44;4;4;
73623;PMS5003;61921;53.226;-1.296;2023-05-07T12:27:02;7;6;
73623;PMS5003;61921;53.226;-1.296;2023-05-07T12:29:27;6;6;
73623;PMS5003;61921;53.226;-1.296;2023-05-07T12:31:52;5;5;
73623;PMS5003;61921;53.226;-1.296;2023-05-07T12:34:17;5;5;
73623;PMS5003;61921;53.226;-1.296;2023-05-07T12:36:42;6;6;
73623;PMS5003;61921;53.226;-1.296;2023-05-07T12:39:08;6;5;
73623;PMS5003;61921;53.226;-1.296;2023-05-07T12:41:35;7;7;
73623;PMS5003;61921;53.226;-1.296;2023-05-07T12:43:57;6;6;
73623;PMS5003;61921;53.226;-1.296;2023-05-07T12:46:22;6;5;
73623;PMS5003;61921;53.226;-1.296;2023-05-07T12:48:47;3;3;
73623;PMS5003;61921;53.226;-1.296;2023-05-07T12:51:13;6;5;
73623;PMS5003;61921;53.226;-1.296;2023-05-07T12:53:39;4;4;
73623;PMS5003;61921;53.226;-1.296;2023-05-07T12:56:04;4;3;
73623;PMS5003;61921;53.226;-1.296;2023-05-07T12:58:29;5;4;
73623;PMS5003;61921;53.226;-1.296;2023-05-07T13:00:56;5;4;
73623;PMS5003;61921;53.226;-1.296;2023-05-07T13:03:21;5;5;
73623;PMS5003;61921;53.226;-1.296;2023-05-07T13:05:46;5;5;
73623;PMS5003;61921;53.226;-1.296;2023-05-07T13:08:12;8;6;
73623;PMS5003;61921;53.226;-1.296;2023-05-07T13:10:38;5;5;
73623;PMS5003;61921;53.226;-1.296;2023-05-07T13:13:04;6;5;
73623;PMS5003;61921;53.226;-1.296;2023-05-07T13:15:29;3;3;
73623;PMS5003;61921;53.226;-1.296;2023-05-07T13:17:55;4;4;
73623;PMS5003;61921;53.226;-1.296;2023-05-07T13:20:21;6;5;
73623;PMS5003;61921;53.226;-1.296;2023-05-07T13:22:47;6;5;
73623;PMS5003;61921;53.226;-1.296;2023-05-07T13:25:13;8;5;
73623;PMS5003;61921;53.226;-1.296;2023-05-07T13:27:39;3;3;
73623;PMS5003;61921;53.226;-1.296;2023-05-07T13:30:05;4;4;
73623;PMS5003;61921;53.226;-1.296;2023-05-07T13:32:30;5;3;
73623;PMS5003;61921;53.226;-1.296;2023-05-07T13:34:56;5;5;
73623;PMS5003;61921;53.226;-1.296;2023-05-07T13:37:22;7;5;
73623;PMS5003;61921;53.226;-1.296;2023-05-07T13:39:48;6;4;
73623;PMS5003;61921;53.226;-1.296;2023-05-07T13:42:14;4;3;
73623;PMS5003;61921;53.226;-1.296;2023-05-07T13:44:39;2;2;
73623;PMS5003;61921;53.226;-1.296;2023-05-07T13:47:04;5;5;
73623;PMS5003;61921;53.226;-1.296;2023-05-07T13:49:29;4;4;
73623;PMS5003;61921;53.226;-1.296;2023-05-07T13:51:55;5;4;
73623;PMS5003;61921;53.226;-1.296;2023-05-07T13:54:21;4;4;
73623;PMS5003;61921;53.226;-1.296;2023-05-07T13:56:47;5;4;
73623;PMS5003;61921;53.226;-1.296;2023-05-07T13:59:13;4;4;
73623;PMS5003;61921;53.226;-1.296;2023-05-07T14:01:38;4;4;
73623;PMS5003;61921;53.226;-1.296;2023-05-07T14:04:04;4;4;
73623;PMS5003;61921;53.226;-1.296;2023-05-07T14:06:30;3;3;
73623;PMS5003;61921;53.226;-1.296;2023-05-07T14:08:56;4;3;
73623;PMS5003;61921;53.226;-1.296;2023-05-07T14:11:22;4;3;
73623;PMS5003;61921;53.226;-1.296;2023-05-07T14:13:46;3;3;
73623;PMS5003;61921;53.226;-1.296;2023-05-07T14:16:13;4;3;
73623;PMS5003;61921;53.226;-1.296;2023-05-07T14:18:38;2;2;
73623;PMS5003;61921;53.226;-1.296;2023-05-07T14:21:04;5;4;
73623;PMS5003;61921;53.226;-1.296;2023-05-07T14:23:30;3;3;
73623;PMS5003;61921;53.226;-1.296;2023-05-07T14:25:56;6;5;
73623;PMS5003;61921;53.226;-1.296;2023-05-07T14:28:21;3;3;
73623;PMS5003;61921;53.226;-1.296;2023-05-07T14:30:47;3;3;
73623;PMS5003;61921;53.226;-1.296;2023-05-07T14:33:13;4;4;
73623;PMS5003;61921;53.226;-1.296;2023-05-07T14:35:39;6;4;
73623;PMS5003;61921;53.226;-1.296;2023-05-07T14:38:05;4;4;
73623;PMS5003;61921;53.226;-1.296;2023-05-07T14:40:31;5;3;
73623;PMS5003;61921;53.226;-1.296;2023-05-07T14:42:57;6;4;
73623;PMS5003;61921;53.226;-1.296;2023-05-07T14:45:22;4;4;
73623;PMS5003;61921;53.226;-1.296;2023-05-07T14:47:48;4;4;
73623;PMS5003;61921;53.226;-1.296;2023-05-07T14:50:14;4;4;
73623;PMS5003;61921;53.226;-1.296;2023-05-07T14:52:40;5;5;
73623;PMS5003;61921;53.226;-1.296;2023-05-07T14:55:06;7;6;
73623;PMS5003;61921;53.226;-1.296;2023-05-07T14:57:32;8;8;
73623;PMS5003;61921;53.226;-1.296;2023-05-07T14:59:57;10;7;
73623;PMS5003;61921;53.226;-1.296;2023-05-07T15:02:23;8;8;
73623;PMS5003;61921;53.226;-1.296;2023-05-07T15:04:49;7;7;
73623;PMS5003;61921;53.226;-1.296;2023-05-07T15:07:15;8;7;
73623;PMS5003;61921;53.226;-1.296;2023-05-07T15:09:41;9;8;
73623;PMS5003;61921;53.226;-1.296;2023-05-07T15:12:07;7;7;
73623;PMS5003;61921;53.226;-1.296;2023-05-07T15:14:32;7;7;
73623;PMS5003;61921;53.226;-1.296;2023-05-07T15:16:58;6;5;
73623;PMS5003;61921;53.226;-1.296;2023-05-07T15:19:24;7;6;
73623;PMS5003;61921;53.226;-1.296;2023-05-07T15:21:50;10;8;
73623;PMS5003;61921;53.226;-1.296;2023-05-07T15:24:16;8;7;
73623;PMS5003;61921;53.226;-1.296;2023-05-07T15:26:42;9;8;
73623;PMS5003;61921;53.226;-1.296;2023-05-07T15:29:07;8;7;
73623;PMS5003;61921;53.226;-1.296;2023-05-07T15:31:34;8;8;
73623;PMS5003;61921;53.226;-1.296;2023-05-07T15:33:59;6;6;
73623;PMS5003;61921;53.226;-1.296;2023-05-07T15:36:25;11;7;
73623;PMS5003;61921;53.226;-1.296;2023-05-07T15:38:51;7;7;
73623;PMS5003;61921;53.226;-1.296;2023-05-07T15:41:16;5;5;
73623;PMS5003;61921;53.226;-1.296;2023-05-07T15:43:43;8;8;
73623;PMS5003;61921;53.226;-1.296;2023-05-07T15:46:08;6;6;
73623;PMS5003;61921;53.226;-1.296;2023-05-07T15:48:34;8;7;
73623;PMS5003;61921;53.226;-1.296;2023-05-07T15:51:00;6;6;
73623;PMS5003;61921;53.226;-1.296;2023-05-07T15:53:26;9;9;
73623;PMS5003;61921;53.226;-1.296;2023-05-07T15:55:51;10;8;
73623;PMS5003;61921;53.226;-1.296;2023-05-07T15:58:17;9;8;
73623;PMS5003;61921;53.226;-1.296;2023-05-07T16:00:43;9;8;
73623;PMS5003;61921;53.226;-1.296;2023-05-07T16:03:09;9;9;
73623;PMS5003;61921;53.226;-1.296;2023-05-07T16:05:35;9;9;
73623;PMS5003;61921;53.226;-1.296;2023-05-07T16:08:01;10;9;
73623;PMS5003;61921;53.226;-1.296;2023-05-07T16:10:26;7;6;
73623;PMS5003;61921;53.226;-1.296;2023-05-07T16:12:52;7;5;
73623;PMS5003;61921;53.226;-1.296;2023-05-07T16:15:18;7;6;